Weather at Sejong Grandia Apartments Heliports

Public forecast

Using degrees Celsius for public forecast. Weather courtesy of forecast.io.

Closest aviation weather report (METAR) to Sejong Grandia Apartments Heliports

Closest report is Gimhae International Airport, 6.4 nm (11.9 km) WNW. Retrieved 2020/09/24 05:00 UTC (27 minutes ago):

RKPK 240500Z 36013KT 9999 SCT040 BKN100 26/14 Q1012

Closest aviation forecast (TAF) to Sejong Grandia Apartments Heliports

Closest forecast is Gimhae International Airport, 6.4 nm (11.9 km) WNW. Retrieved 2020-09-24 00:00 UTC (5 hours ago):

TAF RKPK 232300Z 2400/2506 36010KT 9999 SCT030 BKN100 TX24/2406Z TN16/2421Z BECMG 2405/2409 BKN030 BKN100